Time;durP1;ratioP1;P1;durP2;ratioP2;P2;SDS_P1;SDS_P2;PMS_P1;PMS_P2;Temp;Humidity;BMP_temperature;BMP_pressure;BME280_temperature;BME280_humidity;BME280_pressure;Samples;Min_cycle;Max_cycle;Signal;HPM_P1;HPM_P2
2022/08/18 00:04:53;;;;;;;2.55;2.35;;;24.20;62.80;;;;;;5130191;27;20382;-69
2022/08/18 00:07:23;;;;;;;2.20;2.03;;;24.20;62.80;;;;;;5129201;28;20398;-69
2022/08/18 00:09:49;;;;;;;2.35;2.00;;;24.20;62.80;;;;;;5146177;27;20118;-69
2022/08/18 00:12:20;;;;;;;2.42;2.28;;;24.20;62.90;;;;;;5130209;27;20061;-69
2022/08/18 00:14:46;;;;;;;2.63;2.42;;;24.20;62.90;;;;;;5129959;27;20394;-69
2022/08/18 00:17:13;;;;;;;2.45;2.25;;;24.20;62.80;;;;;;5129072;28;20039;-69
2022/08/18 00:19:39;;;;;;;2.88;2.00;;;24.20;62.90;;;;;;5128683;28;20035;-69
2022/08/18 00:22:05;;;;;;;2.25;2.05;;;24.20;62.90;;;;;;5130034;27;20076;-69
2022/08/18 00:24:32;;;;;;;2.20;1.98;;;24.10;62.80;;;;;;5128544;28;20445;-69
2022/08/18 00:26:57;;;;;;;2.40;2.20;;;24.10;62.80;;;;;;5128827;28;20035;-69
2022/08/18 00:29:23;;;;;;;2.58;2.33;;;24.10;62.80;;;;;;5128804;27;20360;-69
2022/08/18 00:31:49;;;;;;;2.47;2.13;;;24.20;62.80;;;;;;5128804;28;20474;-69
2022/08/18 00:34:15;;;;;;;3.05;2.40;;;24.10;62.80;;;;;;5129882;27;20044;-69
2022/08/18 00:36:41;;;;;;;2.38;2.17;;;24.10;62.80;;;;;;5146008;27;20168;-69
2022/08/18 00:39:07;;;;;;;2.30;2.10;;;24.10;62.80;;;;;;5129549;28;20475;-69
2022/08/18 00:41:32;;;;;;;2.83;2.17;;;24.10;62.80;;;;;;5129692;28;20047;-69
2022/08/18 00:43:58;;;;;;;2.33;2.10;;;24.10;62.80;;;;;;5129339;28;20061;-69
2022/08/18 00:46:32;;;;;;;2.00;1.50;;;24.10;62.80;;;;;;5128600;28;20045;-69
2022/08/18 00:48:58;;;;;;;2.28;2.08;;;24.10;62.90;;;;;;5128508;28;20416;-69
2022/08/18 00:51:30;;;;;;;2.42;2.22;;;24.10;62.90;;;;;;5129675;27;20031;-69
2022/08/18 00:54:01;;;;;;;2.75;2.40;;;24.10;62.80;;;;;;5128284;28;20047;-69
2022/08/18 00:56:34;;;;;;;2.50;2.30;;;24.10;62.90;;;;;;5128025;27;20043;-69
2022/08/18 00:59:14;;;;;;;2.20;2.10;;;24.10;62.90;;;;;;5129276;27;20064;-69
2022/08/18 01:01:41;;;;;;;2.63;2.25;;;24.10;62.90;;;;;;5127930;28;20490;-69
2022/08/18 01:04:21;;;;;;;2.15;1.95;;;24.10;62.80;;;;;;5128903;27;20063;-69
2022/08/18 01:06:53;;;;;;;2.67;2.47;;;24.10;62.90;;;;;;5128072;28;20428;-69
2022/08/18 01:09:19;;;;;;;2.95;2.15;;;24.10;62.90;;;;;;5128990;27;20031;-69
2022/08/18 01:11:46;;;;;;;2.42;2.22;;;24.10;62.80;;;;;;5127876;28;20042;-69
2022/08/18 01:14:17;;;;;;;2.65;2.45;;;24.10;62.80;;;;;;5142773;27;20044;-69
2022/08/18 01:22:30;;;;;;;2.03;1.83;;;24.10;62.80;;;;;;5114957;28;20048;-69
2022/08/18 01:27:44;;;;;;;2.35;1.95;;;24.10;62.90;;;;;;5113648;28;20048;-69
2022/08/18 01:30:13;;;;;;;2.70;2.35;;;24.10;62.80;;;;;;5113604;28;20047;-69
2022/08/18 01:32:41;;;;;;;2.65;2.45;;;24.10;62.90;;;;;;5113648;28;20044;-69
2022/08/18 01:35:08;;;;;;;2.00;1.90;;;24.10;62.90;;;;;;5113662;28;20204;-69
2022/08/18 01:37:35;;;;;;;2.05;1.70;;;24.10;62.90;;;;;;5113726;28;20043;-69
2022/08/18 01:40:05;;;;;;;2.15;1.95;;;24.10;62.80;;;;;;5130714;27;20040;-69
2022/08/18 01:42:30;;;;;;;2.47;2.08;;;24.10;62.80;;;;;;5113861;28;20035;-69
2022/08/18 01:44:56;;;;;;;2.53;1.98;;;24.10;62.90;;;;;;5113397;28;20434;-69
2022/08/18 01:47:22;;;;;;;2.58;2.38;;;24.10;62.80;;;;;;5130562;27;20035;-69
2022/08/18 01:49:48;;;;;;;2.08;1.85;;;24.10;62.80;;;;;;5114643;28;20089;-69
2022/08/18 01:52:19;;;;;;;2.40;2.20;;;24.10;62.80;;;;;;5113260;28;20035;-70
2022/08/18 01:54:45;;;;;;;2.30;2.10;;;24.10;62.80;;;;;;5114554;28;20043;-69
2022/08/18 01:57:13;;;;;;;1.77;1.45;;;24.10;62.80;;;;;;5113344;28;20036;-69
2022/08/18 01:59:41;;;;;;;2.20;2.00;;;24.10;62.80;;;;;;5130420;27;20640;-69
2022/08/18 02:02:08;;;;;;;3.38;2.17;;;24.10;62.80;;;;;;5114418;28;20100;-69
2022/08/18 02:04:35;;;;;;;2.28;2.10;;;24.10;62.80;;;;;;5114116;28;20106;-69
2022/08/18 02:07:03;;;;;;;1.98;1.83;;;24.00;62.70;;;;;;5113134;28;20589;-68
2022/08/18 02:09:29;;;;;;;2.28;2.08;;;24.10;62.80;;;;;;5112906;28;20506;-69
2022/08/18 02:11:55;;;;;;;2.17;1.98;;;24.00;62.80;;;;;;5113120;28;20036;-69
2022/08/18 02:14:21;;;;;;;2.33;2.17;;;24.00;62.70;;;;;;5112887;28;20480;-69
2022/08/18 02:16:47;;;;;;;2.13;1.92;;;24.00;62.70;;;;;;5112737;28;20126;-68
2022/08/18 02:19:13;;;;;;;2.25;1.83;;;24.00;62.70;;;;;;5112774;28;20078;-69
2022/08/18 02:21:39;;;;;;;2.75;1.90;;;24.00;62.70;;;;;;5112832;28;20078;-68
2022/08/18 02:24:04;;;;;;;1.75;1.65;;;24.00;62.70;;;;;;5112559;28;20054;-69
2022/08/18 02:26:30;;;;;;;3.13;2.08;;;24.00;62.70;;;;;;5112972;28;20036;-68
2022/08/18 02:28:56;;;;;;;1.80;1.70;;;24.00;62.80;;;;;;5112507;28;20036;-68
2022/08/18 02:31:23;;;;;;;2.75;2.25;;;24.00;62.80;;;;;;5112704;28;20039;-69
2022/08/18 02:33:49;;;;;;;2.90;2.45;;;24.00;62.70;;;;;;5112759;28;20071;-69
2022/08/18 02:36:15;;;;;;;3.03;1.83;;;24.00;62.70;;;;;;5113740;27;20471;-69
2022/08/18 02:38:41;;;;;;;1.67;1.58;;;24.00;62.70;;;;;;5112339;28;20034;-68
2022/08/18 02:41:09;;;;;;;2.40;2.20;;;24.00;62.80;;;;;;5112384;28;20062;-69
2022/08/18 02:43:36;;;;;;;1.98;1.77;;;24.00;62.70;;;;;;5129170;27;20039;-69
2022/08/18 02:46:02;;;;;;;2.65;1.98;;;24.00;62.70;;;;;;5113503;28;20119;-68
2022/08/18 02:51:13;;;;;;;2.17;1.97;;;24.00;62.70;;;;;;5153444;27;1150991;-69
2022/08/18 02:53:41;;;;;;;1.98;1.67;;;24.00;62.70;;;;;;5153051;27;20774;-69
2022/08/18 02:56:26;;;;;;;2.45;1.85;;;24.00;62.70;;;;;;5152903;27;20041;-69
2022/08/18 03:01:37;;;;;;;1.80;1.70;;;24.00;62.80;;;;;;5130365;27;20683;-69
2022/08/18 03:04:05;;;;;;;2.30;1.83;;;24.00;62.80;;;;;;5129201;28;20438;-69
2022/08/18 03:06:32;;;;;;;2.42;2.08;;;24.00;62.70;;;;;;5128945;27;20122;-69
2022/08/18 03:08:58;;;;;;;2.35;2.03;;;24.00;62.80;;;;;;5128828;28;20089;-69
2022/08/18 03:11:26;;;;;;;2.50;1.80;;;24.00;62.70;;;;;;5130383;28;20040;-69
2022/08/18 03:13:53;;;;;;;1.95;1.50;;;24.00;62.80;;;;;;5129083;28;20088;-69
2022/08/18 03:16:20;;;;;;;3.05;1.80;;;24.00;62.70;;;;;;5128989;28;20058;-69
2022/08/18 03:18:46;;;;;;;2.05;1.80;;;24.00;62.80;;;;;;5128660;28;20055;-69
2022/08/18 03:21:15;;;;;;;1.95;1.55;;;23.90;62.60;;;;;;5128608;28;20042;-69
2022/08/18 03:23:42;;;;;;;1.95;1.75;;;24.00;62.80;;;;;;5128818;28;20055;-69
2022/08/18 03:26:11;;;;;;;2.22;1.70;;;24.00;62.70;;;;;;5130012;27;20437;-69
2022/08/18 03:28:39;;;;;;;1.88;1.67;;;23.90;62.70;;;;;;5128460;28;20478;-69
2022/08/18 03:31:05;;;;;;;2.00;1.85;;;23.90;62.70;;;;;;5128683;28;20080;-69
2022/08/18 03:33:31;;;;;;;1.60;1.40;;;23.90;62.70;;;;;;5145700;27;20050;-69
2022/08/18 03:36:04;;;;;;;2.85;1.90;;;23.90;62.70;;;;;;5129635;28;20027;-69
2022/08/18 03:38:29;;;;;;;3.13;1.70;;;24.00;62.80;;;;;;5130064;27;20096;-69
2022/08/18 03:40:55;;;;;;;2.10;1.88;;;23.90;62.70;;;;;;5128242;28;20471;-69
2022/08/18 03:43:21;;;;;;;1.30;1.13;;;23.90;62.70;;;;;;5145313;27;20039;-69
2022/08/18 03:45:46;;;;;;;2.28;1.70;;;23.90;62.70;;;;;;5128202;28;20040;-69
2022/08/18 03:48:12;;;;;;;1.60;1.50;;;23.90;62.70;;;;;;5128263;28;20048;-69
2022/08/18 03:50:38;;;;;;;1.65;1.55;;;23.90;62.70;;;;;;5129369;28;20041;-69
2022/08/18 03:53:04;;;;;;;1.85;1.52;;;23.90;62.70;;;;;;5128331;27;20043;-70
2022/08/18 03:55:31;;;;;;;2.00;1.77;;;23.90;62.70;;;;;;5128409;28;20387;-69
2022/08/18 03:58:01;;;;;;;1.73;1.60;;;23.90;62.70;;;;;;5127920;28;20039;-69
2022/08/18 04:00:28;;;;;;;2.15;1.65;;;23.90;62.70;;;;;;5127554;28;20131;-69
2022/08/18 04:02:55;;;;;;;2.25;2.05;;;23.90;62.70;;;;;;5128122;28;20031;-69
2022/08/18 04:05:20;;;;;;;2.35;2.15;;;23.90;62.70;;;;;;5127952;28;20088;-69
2022/08/18 04:07:46;;;;;;;1.80;1.63;;;23.90;62.70;;;;;;5127879;28;20479;-69
2022/08/18 04:10:12;;;;;;;2.25;1.88;;;23.90;62.60;;;;;;5127716;28;20035;-69
2022/08/18 04:12:40;;;;;;;1.70;1.45;;;23.90;62.70;;;;;;5132822;27;20096;-69
2022/08/18 04:15:06;;;;;;;2.13;1.48;;;23.90;62.70;;;;;;5114385;28;20451;-69
2022/08/18 04:17:31;;;;;;;2.97;1.70;;;23.90;62.70;;;;;;5114066;28;20395;-69
2022/08/18 04:19:57;;;;;;;1.73;1.63;;;23.90;62.60;;;;;;5130996;27;20050;-69
2022/08/18 04:22:24;;;;;;;1.83;1.70;;;23.90;62.70;;;;;;5114005;28;20031;-69
2022/08/18 04:24:50;;;;;;;2.58;1.75;;;23.90;62.60;;;;;;5113968;28;20042;-69
2022/08/18 04:27:17;;;;;;;5.22;1.60;;;23.90;62.70;;;;;;5130752;27;20483;-69
2022/08/18 04:29:43;;;;;;;1.60;1.30;;;23.90;62.70;;;;;;5113537;28;20043;-69
2022/08/18 04:32:08;;;;;;;2.85;1.52;;;23.90;62.60;;;;;;5113516;28;20047;-69
2022/08/18 04:34:34;;;;;;;2.65;1.65;;;23.90;62.70;;;;;;5113617;28;20126;-69
2022/08/18 04:37:01;;;;;;;1.63;1.50;;;23.90;62.70;;;;;;5130570;27;20071;-69
2022/08/18 04:39:27;;;;;;;1.75;1.65;;;23.90;62.70;;;;;;5113492;28;20035;-69
2022/08/18 04:41:53;;;;;;;1.83;1.55;;;23.90;62.70;;;;;;5113806;28;20043;-69
2022/08/18 04:44:19;;;;;;;2.00;1.80;;;23.90;62.70;;;;;;5113364;28;20040;-69
2022/08/18 04:46:48;;;;;;;1.85;1.40;;;23.90;62.70;;;;;;5113602;28;20040;-69
2022/08/18 04:49:16;;;;;;;4.13;2.00;;;23.90;62.70;;;;;;5113252;28;20119;-69
2022/08/18 04:53:43;;;;;;;2.10;1.83;;;23.90;62.70;;;;;;5113321;28;20040;-69
2022/08/18 04:54:37;;;;;;;1.48;1.38;;;23.90;62.70;;;;;;5113341;28;20065;-69
2022/08/18 04:57:07;;;;;;;3.47;1.48;;;23.90;62.70;;;;;;5113093;28;20027;-69
2022/08/18 04:59:33;;;;;;;2.15;1.67;;;23.80;62.60;;;;;;5130166;27;20055;-69
2022/08/18 05:02:01;;;;;;;1.73;1.63;;;23.80;62.60;;;;;;5114287;28;20391;-68
2022/08/18 05:04:27;;;;;;;1.50;1.40;;;23.80;62.70;;;;;;5114257;27;20479;-69
2022/08/18 05:06:53;;;;;;;1.77;1.60;;;23.90;62.70;;;;;;5112981;28;20040;-69
2022/08/18 05:09:19;;;;;;;1.45;1.13;;;23.80;62.60;;;;;;5112889;28;20091;-69
2022/08/18 05:11:44;;;;;;;1.80;1.63;;;23.80;62.70;;;;;;5113221;28;20127;-69
2022/08/18 05:14:11;;;;;;;2.15;2.00;;;23.80;62.70;;;;;;5112872;28;20361;-69
2022/08/18 05:16:36;;;;;;;2.20;1.60;;;23.90;62.80;;;;;;5114264;28;20046;-69
2022/08/18 05:19:06;;;;;;;1.83;1.73;;;23.80;62.70;;;;;;5112706;28;20387;-69
2022/08/18 05:21:32;;;;;;;1.50;1.40;;;23.80;62.70;;;;;;5112749;28;20483;-69
2022/08/18 05:23:59;;;;;;;1.83;1.60;;;23.80;62.70;;;;;;5111591;28;20039;-69
2022/08/18 05:26:26;;;;;;;1.70;1.40;;;23.80;62.70;;;;;;5112545;28;20491;-69
2022/08/18 05:28:53;;;;;;;1.70;1.60;;;23.80;62.70;;;;;;5130084;27;20044;-69
2022/08/18 05:31:21;;;;;;;1.67;1.58;;;23.80;62.70;;;;;;5114150;28;20050;-69
2022/08/18 05:33:48;;;;;;;1.95;1.17;;;23.80;62.70;;;;;;5129516;27;20111;-69
2022/08/18 05:42:16;;;;;;;2.20;2.00;;;23.80;62.70;;;;;;5130398;27;20354;-69
2022/08/18 05:44:48;;;;;;;1.98;1.50;;;23.80;62.70;;;;;;5146310;27;20039;-69
2022/08/18 05:47:33;;;;;;;2.67;1.70;;;23.80;62.80;;;;;;5129256;28;20431;-68
2022/08/18 05:50:06;;;;;;;1.75;1.60;;;23.80;62.70;;;;;;5129086;28;20039;-69
2022/08/18 05:58:50;;;;;;;2.30;1.50;;;23.80;62.70;;;;;;5088090;28;20431;-69
2022/08/18 06:01:22;;;;;;;1.95;1.67;;;23.80;62.70;;;;;;5104909;28;20040;-69
2022/08/18 06:04:01;;;;;;;1.65;1.20;;;23.80;62.70;;;;;;5089396;28;20044;-69
2022/08/18 06:06:29;;;;;;;1.92;1.45;;;23.80;62.70;;;;;;5087954;28;20089;-68
2022/08/18 06:11:42;;;;;;;3.15;1.38;;;23.80;62.70;;;;;;5150975;27;20111;-69
2022/08/18 06:14:07;;;;;;;2.03;1.63;;;23.80;62.70;;;;;;5129001;28;20054;-69
2022/08/18 06:19:47;;;;;;;1.85;1.63;;;23.80;62.70;;;;;;5130305;27;20743;-69
2022/08/18 06:25:29;;;;;;;3.00;1.88;;;23.80;62.70;;;;;;5130135;27;20354;-69
2022/08/18 06:28:15;;;;;;;1.88;1.77;;;23.80;62.70;;;;;;5129312;27;20086;-69
2022/08/18 06:39:22;;;;;;;3.53;1.67;;;23.70;62.70;;;;;;5089422;28;20352;-69
2022/08/18 06:41:53;;;;;;;2.45;1.60;;;23.70;62.70;;;;;;5088539;28;20032;-69
2022/08/18 06:47:16;;;;;;;1.50;1.40;;;23.70;62.70;;;;;;5130244;27;20345;-69
2022/08/18 06:49:53;;;;;;;;;;;23.70;62.70;;;;;;5129739;28;20047;-69
2022/08/18 06:55:12;;;;;;;1.73;1.30;;;23.70;62.70;;;;;;5130280;27;20896;-69
2022/08/18 06:57:56;;;;;;;1.67;1.20;;;23.70;62.70;;;;;;5129120;28;20039;-68
2022/08/18 07:00:26;;;;;;;2.15;1.50;;;23.80;62.70;;;;;;5129199;28;20047;-68
2022/08/18 07:03:15;;;;;;;1.65;1.38;;;23.70;62.70;;;;;;5130417;27;20100;-68
2022/08/18 07:06:20;;;;;;;2.13;1.20;;;23.80;62.80;;;;;;5146266;27;20436;-68
2022/08/18 07:08:48;;;;;;;2.55;1.30;;;23.80;62.70;;;;;;5128802;27;20118;-68
2022/08/18 07:14:11;;;;;;;1.85;1.20;;;23.70;62.70;;;;;;5130448;27;20419;-68
2022/08/18 07:16:37;;;;;;;2.25;1.67;;;23.70;62.70;;;;;;5130295;27;20482;-68
2022/08/18 07:19:15;;;;;;;2.20;1.60;;;23.70;62.70;;;;;;5128867;27;20493;-68
2022/08/18 07:21:42;;;;;;;2.05;1.70;;;23.80;62.80;;;;;;5130063;27;20081;-68
2022/08/18 07:24:13;;;;;;;2.10;1.45;;;23.80;62.70;;;;;;5128923;28;20036;-68
2022/08/18 07:30:02;;;;;;;1.73;1.52;;;23.70;62.70;;;;;;5089381;27;20408;-68
2022/08/18 07:32:35;;;;;;;2.22;1.38;;;23.80;62.70;;;;;;5105147;28;20044;-68
2022/08/18 07:35:05;;;;;;;1.85;1.13;;;23.80;62.70;;;;;;5088150;28;20052;-68
2022/08/18 07:37:41;;;;;;;2.42;1.17;;;23.80;62.70;;;;;;5088279;28;20135;-68
2022/08/18 07:43:15;;;;;;;2.50;1.30;;;23.80;62.70;;;;;;5089427;28;20417;-68
2022/08/18 07:45:45;;;;;;;1.40;1.00;;;23.80;62.70;;;;;;5088006;28;20032;-68
2022/08/18 07:48:32;;;;;;;1.92;1.20;;;23.80;62.60;;;;;;5088084;28;20044;-68
2022/08/18 07:51:22;;;;;;;2.75;1.40;;;23.80;62.70;;;;;;5088067;28;20048;-68
2022/08/18 07:53:58;;;;;;;1.50;1.40;;;23.80;62.60;;;;;;5088037;28;20040;-68
2022/08/18 07:59:37;;;;;;;2.00;1.60;;;23.80;62.60;;;;;;5130253;27;20358;-68
2022/08/18 08:18:54;;;;;;;1.35;1.15;;;23.80;62.40;;;;;;5089350;28;20367;-68
2022/08/18 08:21:23;;;;;;;1.73;1.30;;;23.80;62.40;;;;;;5105162;28;20048;-68
2022/08/18 08:24:12;;;;;;;1.20;1.00;;;23.80;62.40;;;;;;5088112;28;20511;-68
2022/08/18 08:27:05;;;;;;;2.05;1.17;;;23.80;62.30;;;;;;5088281;28;20123;-68
2022/08/18 08:32:36;;;;;;;1.77;1.25;;;23.80;62.30;;;;;;5109664;27;20388;-68
2022/08/18 08:37:52;;;;;;;1.30;1.10;;;23.80;62.40;;;;;;5153012;27;1163750;-68
2022/08/18 08:40:26;;;;;;;1.60;1.05;;;23.80;62.30;;;;;;5171720;27;20701;-68
2022/08/18 08:43:03;;;;;;;1.55;1.05;;;23.80;62.30;;;;;;5171557;27;20043;-68
2022/08/18 08:45:35;;;;;;;1.40;1.30;;;23.90;62.30;;;;;;5152920;27;20039;-68
2022/08/18 08:48:11;;;;;;;1.45;1.20;;;23.80;62.30;;;;;;5153100;27;20034;-68
2022/08/18 08:50:49;;;;;;;2.83;1.48;;;23.80;62.20;;;;;;5152895;27;20042;-68
2022/08/18 08:56:06;;;;;;;1.27;0.93;;;23.80;62.30;;;;;;5152898;27;1162150;-68
2022/08/18 08:58:36;;;;;;;;;;;23.90;62.30;;;;;;5154015;27;20279;-68
2022/08/18 09:01:03;;;;;;;2.55;1.10;;;23.80;62.30;;;;;;5153421;27;19976;-67
2022/08/18 09:03:51;;;;;;;1.30;0.93;;;23.90;62.50;;;;;;5153325;27;20038;-68
2022/08/18 09:06:30;;;;;;;1.73;0.85;;;23.90;62.50;;;;;;5152903;27;20118;-67
2022/08/18 09:12:02;;;;;;;1.30;1.20;;;23.80;62.40;;;;;;5130232;27;20127;-67
2022/08/18 09:20:58;;;;;;;2.63;1.40;;;23.80;62.50;;;;;;5152921;27;1159856;-68
2022/08/18 09:23:31;;;;;;;1.65;1.02;;;23.90;62.50;;;;;;5171535;27;20702;-67
2022/08/18 09:26:18;;;;;;;2.30;1.25;;;23.80;62.40;;;;;;5153099;27;20033;-67
2022/08/18 09:29:11;;;;;;;0.85;0.80;;;23.90;62.40;;;;;;5152724;27;20046;-67
2022/08/18 09:31:37;;;;;;;2.15;1.27;;;23.90;62.30;;;;;;5152895;27;20146;-67
2022/08/18 09:45:28;;;;;;;1.35;0.90;;;23.90;62.20;;;;;;5130349;27;20294;-67
2022/08/18 09:50:38;;;;;;;1.10;0.82;;;23.90;62.20;;;;;;5130168;27;20410;-67
2022/08/18 09:53:31;;;;;;;1.13;0.95;;;23.90;62.20;;;;;;5128899;28;20051;-67
2022/08/18 09:55:58;;;;;;;1.40;0.80;;;23.90;62.10;;;;;;5128738;27;20130;-67
2022/08/18 10:07:13;;;;;;;1.55;1.10;;;23.90;62.10;;;;;;5109996;27;20408;-67
2022/08/18 10:10:09;;;;;;;2.40;0.90;;;23.90;62.10;;;;;;5108496;28;20036;-67
2022/08/18 10:34:55;;;;;;;1.98;0.73;;;23.90;62.00;;;;;;5130306;27;20407;-67
2022/08/18 10:43:06;;;;;;;1.75;1.08;;;23.90;62.00;;;;;;5130263;27;20357;-67
2022/08/18 10:45:44;;;;;;;1.30;0.90;;;23.90;62.00;;;;;;5128969;28;20069;-68
2022/08/18 10:53:51;;;;;;;1.38;0.75;;;23.90;61.90;;;;;;5130302;27;20128;-67
2022/08/18 11:04:46;;;;;;;1.77;0.80;;;23.90;61.90;;;;;;5130292;27;20910;-67
2022/08/18 11:09:55;;;;;;;0.73;0.60;;;23.90;61.90;;;;;;5130252;27;20407;-67
2022/08/18 11:12:47;;;;;;;0.68;0.55;;;23.90;61.90;;;;;;5129193;28;20089;-67
2022/08/18 11:15:22;;;;;;;1.23;0.75;;;23.90;61.90;;;;;;5128902;28;20043;-67
2022/08/18 11:18:00;;;;;;;1.75;0.80;;;23.90;61.90;;;;;;5129060;28;20050;-67
2022/08/18 11:20:30;;;;;;;1.45;0.77;;;23.90;61.80;;;;;;5128690;27;20410;-67
2022/08/18 11:22:59;;;;;;;0.95;0.57;;;23.90;61.90;;;;;;5129032;28;20454;-67
2022/08/18 11:28:15;;;;;;;1.13;0.80;;;23.90;61.80;;;;;;5089499;28;20352;-67
2022/08/18 11:30:43;;;;;;;1.13;0.70;;;23.90;61.80;;;;;;5088325;28;20048;-67
2022/08/18 11:33:14;;;;;;;1.23;0.77;;;23.90;61.80;;;;;;5088253;28;20087;-67
2022/08/18 11:38:28;;;;;;;0.80;0.57;;;23.90;61.80;;;;;;5130305;27;20350;-66
2022/08/18 11:41:17;;;;;;;1.02;0.93;;;23.90;61.80;;;;;;5128827;28;20096;-67
2022/08/18 11:43:44;;;;;;;1.95;0.60;;;23.90;61.70;;;;;;5128837;28;20056;-66
2022/08/18 11:48:52;;;;;;;1.07;0.70;;;23.90;61.80;;;;;;5152823;27;1165758;-67
2022/08/18 11:51:25;;;;;;;1.05;0.68;;;23.90;61.70;;;;;;5153035;27;20286;-66
2022/08/18 11:56:34;;;;;;;2.78;0.60;;;24.00;61.80;;;;;;5130245;27;20411;-67
2022/08/18 11:59:06;;;;;;;0.75;0.40;;;24.00;61.80;;;;;;5146460;27;20108;-66
2022/08/18 12:01:49;;;;;;;1.42;0.85;;;24.00;61.80;;;;;;5128921;28;20043;-67
2022/08/18 12:07:11;;;;;;;0.90;0.57;;;24.00;61.90;;;;;;5089387;27;20783;-66
2022/08/18 12:15:24;;;;;;;2.80;0.50;;;24.00;61.80;;;;;;5130314;27;20422;-66
2022/08/18 12:17:51;;;;;;;0.90;0.60;;;24.00;61.80;;;;;;5129162;28;20112;-66
2022/08/18 12:20:17;;;;;;;0.70;0.50;;;24.00;61.80;;;;;;5128788;28;20039;-66
2022/08/18 12:22:44;;;;;;;0.85;0.50;;;24.00;61.80;;;;;;5128886;28;20058;-66
2022/08/18 12:25:14;;;;;;;0.75;0.57;;;24.00;61.70;;;;;;5129085;28;20047;-67
2022/08/18 12:27:40;;;;;;;;;;;24.00;61.70;;;;;;5129423;28;20046;-66
2022/08/18 12:30:08;;;;;;;1.45;0.93;;;24.00;61.70;;;;;;5130203;27;19915;-66
2022/08/18 12:32:35;;;;;;;0.70;0.47;;;24.00;61.80;;;;;;5128457;28;20054;-66
2022/08/18 12:35:02;;;;;;;1.58;0.70;;;24.00;61.80;;;;;;5128657;28;20499;-66
2022/08/18 12:37:28;;;;;;;0.55;0.30;;;24.00;61.70;;;;;;5128959;28;20043;-66
2022/08/18 12:39:56;;;;;;;0.70;0.55;;;24.00;61.70;;;;;;5128841;28;20062;-66
2022/08/18 12:42:22;;;;;;;1.35;0.55;;;24.00;61.70;;;;;;5128597;28;20058;-66
2022/08/18 12:44:48;;;;;;;1.30;0.50;;;24.00;61.60;;;;;;5129915;27;20483;-67
2022/08/18 12:47:18;;;;;;;1.60;0.40;;;24.00;61.60;;;;;;5128600;28;20051;-66
2022/08/18 12:49:44;;;;;;;0.45;0.35;;;24.00;61.60;;;;;;5128541;28;20043;-66
2022/08/18 12:52:10;;;;;;;0.90;0.47;;;24.00;61.60;;;;;;5128316;28;20035;-66
2022/08/18 12:54:36;;;;;;;0.68;0.40;;;24.00;61.60;;;;;;5127887;28;20054;-66
2022/08/18 12:57:05;;;;;;;0.90;0.50;;;24.10;61.70;;;;;;5128179;28;20579;-66
2022/08/18 12:59:31;;;;;;;0.93;0.63;;;24.00;61.60;;;;;;5128158;28;20054;-66
2022/08/18 13:01:58;;;;;;;0.90;0.43;;;24.00;61.60;;;;;;5128158;28;20035;-66
2022/08/18 13:04:23;;;;;;;1.00;0.40;;;24.00;61.60;;;;;;5128085;28;20036;-66
2022/08/18 13:06:52;;;;;;;0.60;0.45;;;24.10;61.60;;;;;;5128233;28;20047;-66
2022/08/18 13:09:19;;;;;;;0.90;0.47;;;24.00;61.60;;;;;;5128181;28;20040;-66
2022/08/18 13:11:45;;;;;;;0.70;0.45;;;24.00;61.60;;;;;;5129200;27;20118;-66
2022/08/18 13:14:13;;;;;;;0.60;0.30;;;24.10;61.60;;;;;;5127586;28;20096;-66
2022/08/18 13:16:40;;;;;;;0.63;0.30;;;24.00;61.60;;;;;;5129155;27;20031;-66
2022/08/18 13:19:08;;;;;;;0.60;0.43;;;24.10;61.60;;;;;;5127668;28;20044;-66
2022/08/18 13:21:34;;;;;;;0.60;0.40;;;24.00;61.50;;;;;;5127803;28;20067;-66
2022/08/18 13:24:00;;;;;;;0.75;0.50;;;24.00;61.50;;;;;;5127702;28;20530;-66
2022/08/18 13:26:29;;;;;;;0.80;0.40;;;24.00;61.50;;;;;;5114916;27;20124;-66
2022/08/18 13:28:56;;;;;;;0.90;0.50;;;24.10;61.60;;;;;;5115204;28;20514;-66
2022/08/18 13:31:22;;;;;;;1.27;0.60;;;24.10;61.60;;;;;;5115141;28;20032;-66
2022/08/18 13:33:49;;;;;;;0.70;0.50;;;24.10;61.60;;;;;;5113737;28;20039;-66
2022/08/18 13:36:15;;;;;;;0.75;0.40;;;24.10;61.50;;;;;;5113997;28;20498;-66
2022/08/18 13:38:42;;;;;;;1.27;0.70;;;24.10;61.50;;;;;;5115111;28;20039;-66
2022/08/18 13:41:08;;;;;;;0.70;0.40;;;24.10;61.60;;;;;;5113580;28;20040;-66
2022/08/18 13:43:37;;;;;;;0.80;0.50;;;24.10;61.50;;;;;;5115148;28;20048;-66
2022/08/18 13:46:04;;;;;;;0.70;0.50;;;24.10;61.50;;;;;;5113824;28;20044;-66
2022/08/18 13:48:31;;;;;;;0.95;0.40;;;24.10;61.50;;;;;;5114946;28;20040;-66
2022/08/18 13:50:58;;;;;;;0.60;0.40;;;24.10;61.50;;;;;;5113842;28;20055;-66
2022/08/18 13:53:26;;;;;;;0.73;0.30;;;24.10;61.50;;;;;;5113578;28;20039;-66
2022/08/18 13:55:52;;;;;;;0.73;0.47;;;24.10;61.40;;;;;;5114552;28;20047;-66
2022/08/18 13:58:17;;;;;;;0.75;0.35;;;24.10;61.50;;;;;;5113684;28;20126;-66
2022/08/18 14:00:44;;;;;;;0.80;0.30;;;24.10;61.50;;;;;;5113423;28;20296;-66
2022/08/18 14:03:10;;;;;;;1.95;0.40;;;24.10;61.50;;;;;;5114473;28;20101;-66
2022/08/18 14:05:36;;;;;;;0.77;0.43;;;24.10;61.50;;;;;;5113267;28;20047;-66
2022/08/18 14:08:03;;;;;;;0.90;0.52;;;24.10;61.40;;;;;;5114568;28;20035;-66
2022/08/18 14:10:30;;;;;;;0.95;0.50;;;24.10;61.40;;;;;;5113088;28;20104;-66
2022/08/18 14:12:59;;;;;;;1.00;0.40;;;24.10;61.50;;;;;;5114128;28;20052;-66
2022/08/18 14:15:25;;;;;;;1.00;0.50;;;24.10;61.40;;;;;;5114252;28;20085;-66
2022/08/18 14:17:51;;;;;;;0.70;0.30;;;24.10;61.40;;;;;;5114453;28;20527;-66
2022/08/18 14:28:34;;;;;;;0.47;0.30;;;24.10;61.30;;;;;;5112605;28;20100;-66
2022/08/18 14:31:02;;;;;;;0.70;0.40;;;24.10;61.40;;;;;;5113968;28;20126;-66
2022/08/18 14:33:29;;;;;;;1.00;0.60;;;24.10;61.40;;;;;;5112875;28;20047;-66
2022/08/18 14:35:55;;;;;;;0.50;0.30;;;24.20;61.40;;;;;;5112344;28;20035;-66
2022/08/18 14:38:20;;;;;;;0.68;0.40;;;24.10;61.30;;;;;;5113375;28;20027;-66
2022/08/18 14:40:47;;;;;;;0.65;0.40;;;24.10;61.30;;;;;;5112819;28;20028;-66
2022/08/18 14:43:17;;;;;;;0.50;0.30;;;24.10;61.20;;;;;;5113862;28;20036;-66
2022/08/18 14:45:47;;;;;;;0.82;0.30;;;24.20;61.30;;;;;;5112823;28;20048;-66
2022/08/18 14:48:14;;;;;;;0.70;0.40;;;24.10;61.30;;;;;;5112410;28;20088;-66
2022/08/18 14:50:41;;;;;;;0.40;0.30;;;24.10;61.30;;;;;;5112284;28;20040;-66
2022/08/18 14:53:06;;;;;;;1.05;0.50;;;24.10;61.30;;;;;;5112429;28;20042;-66
2022/08/18 14:55:32;;;;;;;1.08;0.50;;;24.10;61.30;;;;;;5112230;28;20031;-66
2022/08/18 14:57:58;;;;;;;0.50;0.30;;;24.10;61.30;;;;;;5112212;28;20062;-66
2022/08/18 15:00:24;;;;;;;0.77;0.50;;;24.10;61.40;;;;;;5113522;28;20077;-67
2022/08/18 15:02:50;;;;;;;0.90;0.40;;;24.10;61.40;;;;;;5112050;28;20040;-66
2022/08/18 15:05:17;;;;;;;1.08;0.50;;;24.10;61.40;;;;;;5112029;28;20031;-66
2022/08/18 15:07:42;;;;;;;0.70;0.43;;;24.10;61.40;;;;;;5111955;28;20046;-66
2022/08/18 15:10:11;;;;;;;0.60;0.30;;;24.10;61.40;;;;;;5112057;28;20040;-66
2022/08/18 15:12:37;;;;;;;0.98;0.40;;;24.10;61.40;;;;;;5111611;28;20061;-66
2022/08/18 15:15:05;;;;;;;0.80;0.40;;;24.10;61.40;;;;;;5111801;28;20066;-66
2022/08/18 15:17:31;;;;;;;0.80;0.50;;;24.10;61.40;;;;;;5113524;27;20047;-66
2022/08/18 15:19:57;;;;;;;0.88;0.60;;;24.10;61.50;;;;;;5111978;28;20395;-66
2022/08/18 15:25:43;;;;;;;1.10;0.40;;;24.10;61.50;;;;;;5111720;28;20047;-66
2022/08/18 15:27:56;;;;;;;1.55;0.40;;;24.20;61.50;;;;;;5111425;28;20457;-66
2022/08/18 15:30:22;;;;;;;0.90;0.40;;;24.20;61.60;;;;;;5111788;28;20072;-66
2022/08/18 15:32:49;;;;;;;0.85;0.40;;;24.10;61.50;;;;;;5112682;28;20028;-66
2022/08/18 15:35:15;;;;;;;0.70;0.38;;;24.10;61.50;;;;;;5111549;28;20052;-66
2022/08/18 15:37:43;;;;;;;0.57;0.30;;;24.20;61.60;;;;;;5112784;28;20054;-66
2022/08/18 15:40:14;;;;;;;0.70;0.40;;;24.20;61.60;;;;;;5111426;28;20038;-66
2022/08/18 15:42:49;;;;;;;1.17;0.68;;;24.10;61.50;;;;;;5111445;28;20077;-66
2022/08/18 15:45:18;;;;;;;0.88;0.50;;;24.20;61.60;;;;;;5112656;28;20118;-66
2022/08/18 15:47:44;;;;;;;0.80;0.35;;;24.10;61.50;;;;;;5111354;28;20039;-66
2022/08/18 15:50:11;;;;;;;0.93;0.57;;;24.20;61.50;;;;;;5112539;28;20031;-67
2022/08/18 15:52:48;;;;;;;1.10;0.30;;;24.20;61.50;;;;;;5112665;28;20055;-66
2022/08/18 15:55:15;;;;;;;0.50;0.30;;;24.10;61.50;;;;;;5111152;28;20042;-66
2022/08/18 15:57:41;;;;;;;1.30;0.63;;;24.10;61.60;;;;;;5111052;28;20035;-66
2022/08/18 16:00:08;;;;;;;0.98;0.52;;;24.20;61.50;;;;;;5111155;28;20043;-66
2022/08/18 16:02:34;;;;;;;0.63;0.40;;;24.20;61.60;;;;;;5111108;28;20043;-66
2022/08/18 16:05:00;;;;;;;0.55;0.35;;;24.20;61.60;;;;;;5112583;28;20035;-67
2022/08/18 16:07:27;;;;;;;0.52;0.40;;;24.10;61.50;;;;;;5110993;28;20114;-67
2022/08/18 16:09:53;;;;;;;1.67;0.40;;;24.20;61.50;;;;;;5111127;28;20047;-66
2022/08/18 16:12:19;;;;;;;0.50;0.30;;;24.20;61.50;;;;;;5110978;28;20391;-66
2022/08/18 16:14:44;;;;;;;1.67;0.47;;;24.20;61.50;;;;;;5111909;28;20124;-66
2022/08/18 16:17:10;;;;;;;1.58;0.50;;;24.20;61.50;;;;;;5110982;28;20475;-66